Time;durP1;ratioP1;P1;durP2;ratioP2;P2;SDS_P1;SDS_P2;PMS_P1;PMS_P2;Temp;Humidity;BMP_temperature;BMP_pressure;BME280_temperature;BME280_humidity;BME280_pressure;Samples;Min_cycle;Max_cycle;Signal;HPM_P1;HPM_P2
2023/12/02 00:01:59;;;;;;;35.47;19.33;;;1.70;99.90;;;;;;4994423;28;20034;-74
2023/12/02 00:04:25;;;;;;;38.80;20.15;;;1.70;99.90;;;;;;5014288;28;20077;-78
2023/12/02 00:06:50;;;;;;;39.28;19.48;;;1.60;99.90;;;;;;5014827;28;20036;-79
2023/12/02 00:09:16;;;;;;;37.83;19.25;;;1.70;99.90;;;;;;5013996;28;20479;-79
2023/12/02 00:11:42;;;;;;;34.92;17.73;;;1.70;99.90;;;;;;5014912;28;20068;-78
2023/12/02 00:14:08;;;;;;;36.65;18.85;;;1.70;99.90;;;;;;5014216;28;20022;-76
2023/12/02 00:16:34;;;;;;;37.95;19.25;;;1.60;99.90;;;;;;5014357;28;20038;-75
2023/12/02 00:19:00;;;;;;;37.70;17.95;;;1.60;99.90;;;;;;4994405;28;20053;-78
2023/12/02 00:21:26;;;;;;;37.70;18.88;;;1.50;99.90;;;;;;4993685;28;20034;-77
2023/12/02 00:23:52;;;;;;;36.60;19.70;;;1.60;99.90;;;;;;4991266;28;20035;-78
2023/12/02 00:26:18;;;;;;;36.60;17.70;;;1.60;99.90;;;;;;4994539;28;20022;-78
2023/12/02 00:28:43;;;;;;;35.33;17.70;;;1.70;99.90;;;;;;4993701;28;20038;-77
2023/12/02 00:31:09;;;;;;;40.08;18.23;;;1.70;99.90;;;;;;4994606;28;20604;-76
2023/12/02 00:33:35;;;;;;;33.88;17.85;;;1.70;99.90;;;;;;4995199;28;20022;-79
2023/12/02 00:36:00;;;;;;;35.70;18.17;;;1.70;99.90;;;;;;4994507;28;20093;-78
2023/12/02 00:38:27;;;;;;;38.83;19.13;;;1.70;99.90;;;;;;4999056;28;20025;-77
2023/12/02 00:40:52;;;;;;;39.05;18.90;;;1.70;99.90;;;;;;5013832;28;20426;-76
2023/12/02 00:43:18;;;;;;;35.97;16.65;;;1.80;99.90;;;;;;5003800;28;20030;-77
2023/12/02 00:45:44;;;;;;;35.65;17.25;;;1.80;99.90;;;;;;4994689;28;20430;-78
2023/12/02 00:48:09;;;;;;;33.92;17.55;;;1.80;99.90;;;;;;5003711;28;20053;-78
2023/12/02 00:50:35;;;;;;;39.65;19.50;;;1.70;99.90;;;;;;5003359;28;20030;-78
2023/12/02 00:53:01;;;;;;;35.00;17.95;;;1.80;99.90;;;;;;5003208;28;20475;-78
2023/12/02 00:55:27;;;;;;;36.78;16.80;;;1.80;99.90;;;;;;5012957;28;20046;-78
2023/12/02 00:57:52;;;;;;;38.15;18.63;;;1.80;99.90;;;;;;5013100;28;20559;-78
2023/12/02 01:00:18;;;;;;;36.75;17.90;;;1.80;99.90;;;;;;5013600;28;20030;-77
2023/12/02 01:02:44;;;;;;;34.17;17.35;;;1.70;99.90;;;;;;5013693;28;20457;-78
2023/12/02 01:05:10;;;;;;;37.40;17.42;;;1.70;99.90;;;;;;4995086;28;20038;-78
2023/12/02 01:07:35;;;;;;;32.88;16.80;;;1.70;99.90;;;;;;4994176;28;20503;-78
2023/12/02 01:10:03;;;;;;;35.53;17.38;;;1.70;99.90;;;;;;4994403;28;20384;-79
2023/12/02 01:12:29;;;;;;;37.97;18.52;;;1.60;99.90;;;;;;4975649;28;20679;-79
2023/12/02 01:14:55;;;;;;;35.55;17.80;;;1.70;99.90;;;;;;4993806;28;20064;-77
2023/12/02 01:17:20;;;;;;;34.63;17.73;;;1.60;99.90;;;;;;4992557;28;20033;-78
2023/12/02 01:19:46;;;;;;;37.65;18.27;;;1.70;99.90;;;;;;5007612;28;20026;-74
2023/12/02 01:22:12;;;;;;;38.42;18.45;;;1.70;99.90;;;;;;5011588;28;20026;-74
2023/12/02 01:24:38;;;;;;;34.40;17.33;;;1.70;99.90;;;;;;5008161;28;20531;-74
2023/12/02 01:27:04;;;;;;;39.80;17.80;;;1.60;99.90;;;;;;5011441;28;20030;-75
2023/12/02 01:29:30;;;;;;;37.17;18.20;;;1.60;99.90;;;;;;4995035;28;20061;-74
2023/12/02 01:31:55;;;;;;;36.72;17.30;;;1.60;99.90;;;;;;5010410;28;20509;-74
2023/12/02 01:34:21;;;;;;;33.88;17.45;;;1.60;99.90;;;;;;5008814;28;20115;-76
2023/12/02 01:36:47;;;;;;;35.17;18.08;;;1.60;99.90;;;;;;5011578;28;20022;-74
2023/12/02 01:39:13;;;;;;;34.80;16.83;;;1.70;99.90;;;;;;5007827;28;20034;-74
2023/12/02 01:41:41;;;;;;;34.47;18.08;;;1.70;99.90;;;;;;5011347;28;20033;-74
2023/12/02 01:44:10;;;;;;;34.83;17.90;;;1.70;99.90;;;;;;5009625;28;20066;-76
2023/12/02 01:46:36;;;;;;;34.97;17.52;;;1.80;99.90;;;;;;5009076;28;20036;-74
2023/12/02 01:49:02;;;;;;;34.15;17.77;;;1.70;99.90;;;;;;5010463;28;20034;-77
2023/12/02 01:51:28;;;;;;;38.75;17.70;;;1.70;99.90;;;;;;5008110;28;20057;-73
2023/12/02 01:53:54;;;;;;;35.38;18.40;;;1.70;99.90;;;;;;5009999;28;20026;-74
2023/12/02 01:56:20;;;;;;;36.58;18.02;;;1.70;99.90;;;;;;5011050;28;20510;-74
2023/12/02 01:58:47;;;;;;;35.00;17.23;;;1.70;99.90;;;;;;5012357;28;20058;-74
2023/12/02 02:01:13;;;;;;;36.60;18.42;;;1.70;99.90;;;;;;5010257;28;20031;-74
2023/12/02 02:03:39;;;;;;;32.72;16.83;;;1.80;99.90;;;;;;5007914;28;20079;-75
2023/12/02 02:06:08;;;;;;;35.63;17.63;;;1.80;99.90;;;;;;5010453;28;20018;-74
2023/12/02 02:08:34;;;;;;;34.25;17.88;;;1.80;99.90;;;;;;5009893;28;20026;-75
2023/12/02 02:11:00;;;;;;;32.65;17.10;;;1.70;99.90;;;;;;5011444;28;20040;-75
2023/12/02 02:13:27;;;;;;;32.35;16.60;;;1.70;99.90;;;;;;5009885;28;20382;-75
2023/12/02 02:15:54;;;;;;;32.22;16.48;;;1.70;99.90;;;;;;5007329;28;20025;-76
2023/12/02 02:18:20;;;;;;;32.83;16.77;;;1.70;99.90;;;;;;5011322;28;20028;-75
2023/12/02 02:20:53;;;;;;;34.20;16.45;;;1.60;99.90;;;;;;5011670;28;20018;-75
2023/12/02 02:23:20;;;;;;;36.13;17.25;;;1.60;99.90;;;;;;5007248;28;20041;-74
2023/12/02 02:25:48;;;;;;;33.83;16.00;;;1.50;99.90;;;;;;5010896;28;20028;-74
2023/12/02 02:28:18;;;;;;;34.33;17.13;;;1.50;99.90;;;;;;5010428;28;20119;-74
2023/12/02 02:30:44;;;;;;;31.67;15.90;;;1.50;99.90;;;;;;5009672;28;20026;-74
2023/12/02 02:33:09;;;;;;;33.55;17.50;;;1.40;99.90;;;;;;5010460;28;20030;-74
2023/12/02 02:35:35;;;;;;;34.55;17.55;;;1.40;99.90;;;;;;5008423;28;20827;-75
2023/12/02 02:38:01;;;;;;;31.48;16.60;;;1.40;99.90;;;;;;5010243;28;20022;-74
2023/12/02 02:40:27;;;;;;;34.75;17.73;;;1.50;99.90;;;;;;5011104;28;20054;-74
2023/12/02 02:42:52;;;;;;;31.75;17.33;;;1.40;99.90;;;;;;5006295;28;20810;-77
2023/12/02 02:45:18;;;;;;;32.78;16.77;;;1.40;99.90;;;;;;5009942;28;20068;-75
2023/12/02 02:47:44;;;;;;;33.53;17.08;;;1.40;99.90;;;;;;5007549;28;20034;-75
2023/12/02 02:50:10;;;;;;;32.30;15.45;;;1.50;99.90;;;;;;5010251;28;20025;-74
2023/12/02 02:52:35;;;;;;;33.72;17.05;;;1.50;99.90;;;;;;5007901;28;20390;-74
2023/12/02 02:55:01;;;;;;;32.45;16.40;;;1.60;99.90;;;;;;5008786;28;20180;-74
2023/12/02 02:57:27;;;;;;;36.83;17.23;;;1.60;99.90;;;;;;5008526;28;20022;-74
2023/12/02 02:59:52;;;;;;;30.75;15.68;;;1.60;99.90;;;;;;5010804;28;20038;-74
2023/12/02 03:02:18;;;;;;;32.80;16.25;;;1.50;99.90;;;;;;5007595;28;20101;-74
2023/12/02 03:04:44;;;;;;;29.05;15.30;;;1.50;99.90;;;;;;5010627;28;20034;-74
2023/12/02 03:07:09;;;;;;;28.15;14.63;;;1.50;99.90;;;;;;5007068;28;20018;-74
2023/12/02 03:09:35;;;;;;;32.55;16.27;;;1.50;99.90;;;;;;5010136;28;20057;-74
2023/12/02 03:12:02;;;;;;;30.58;15.90;;;1.50;99.90;;;;;;5007681;28;20017;-73
2023/12/02 03:14:28;;;;;;;30.33;15.75;;;1.40;99.90;;;;;;5010645;28;20383;-74
2023/12/02 03:16:54;;;;;;;31.45;16.63;;;1.40;99.90;;;;;;5008764;28;20026;-74
2023/12/02 03:19:20;;;;;;;36.50;17.95;;;1.40;99.90;;;;;;5009122;28;20033;-74
2023/12/02 03:21:45;;;;;;;31.08;15.82;;;1.30;99.90;;;;;;5006758;28;20026;-74
2023/12/02 03:24:11;;;;;;;37.30;16.48;;;1.40;99.90;;;;;;5010283;28;20430;-74
2023/12/02 03:26:37;;;;;;;35.30;17.05;;;1.50;99.90;;;;;;5010121;28;20434;-75
2023/12/02 03:29:04;;;;;;;33.10;16.75;;;1.50;99.90;;;;;;5010147;28;20044;-74
2023/12/02 03:31:29;;;;;;;32.60;16.38;;;1.50;99.90;;;;;;4993442;28;20632;-74
2023/12/02 03:33:55;;;;;;;31.15;16.10;;;1.60;99.90;;;;;;5007731;28;20117;-74
2023/12/02 03:36:21;;;;;;;31.42;15.77;;;1.60;99.90;;;;;;5009744;28;20030;-74
2023/12/02 03:38:47;;;;;;;30.25;15.30;;;1.60;99.90;;;;;;5009818;28;20032;-74
2023/12/02 03:41:12;;;;;;;33.30;16.67;;;1.60;99.90;;;;;;5010586;28;20026;-74
2023/12/02 03:43:38;;;;;;;29.98;15.68;;;1.50;99.90;;;;;;5007728;28;20124;-74
2023/12/02 03:46:04;;;;;;;32.88;16.17;;;1.50;99.90;;;;;;5008833;28;20026;-74
2023/12/02 03:48:30;;;;;;;29.92;15.60;;;1.50;99.90;;;;;;5007024;28;20137;-74
2023/12/02 03:50:57;;;;;;;31.77;14.93;;;1.50;99.90;;;;;;5009670;28;20028;-76
2023/12/02 03:53:22;;;;;;;31.85;15.32;;;1.50;99.90;;;;;;5006804;28;20398;-73
2023/12/02 03:55:48;;;;;;;32.15;15.77;;;1.50;99.90;;;;;;5010212;28;20021;-74
2023/12/02 03:58:15;;;;;;;31.63;16.02;;;1.40;99.90;;;;;;5009160;28;20044;-74
2023/12/02 04:00:41;;;;;;;31.13;16.50;;;1.40;99.90;;;;;;5010100;28;20049;-73
2023/12/02 04:03:08;;;;;;;34.00;16.27;;;1.40;99.90;;;;;;5013211;28;20065;-73
2023/12/02 04:05:34;;;;;;;30.73;16.05;;;1.50;99.90;;;;;;5010753;28;20069;-73
2023/12/02 04:08:00;;;;;;;33.88;16.25;;;1.50;99.90;;;;;;5013218;28;20049;-74
2023/12/02 04:10:26;;;;;;;32.90;15.88;;;1.40;99.90;;;;;;5013296;28;20100;-75
2023/12/02 04:12:52;;;;;;;30.33;14.95;;;1.40;99.90;;;;;;5013932;28;20046;-73
2023/12/02 04:15:17;;;;;;;32.42;15.98;;;1.50;99.90;;;;;;5010460;28;20533;-74
2023/12/02 04:17:43;;;;;;;32.80;16.05;;;1.50;99.90;;;;;;5013868;28;20022;-75
2023/12/02 04:20:14;;;;;;;32.30;16.27;;;1.50;99.90;;;;;;5013210;28;20391;-74
2023/12/02 04:22:40;;;;;;;30.08;15.55;;;1.50;99.90;;;;;;5013040;28;20018;-74
2023/12/02 04:25:06;;;;;;;33.30;15.85;;;1.60;99.90;;;;;;5010884;28;20033;-73
2023/12/02 04:27:31;;;;;;;31.05;15.45;;;1.60;99.90;;;;;;5011339;28;20018;-73
2023/12/02 04:29:57;;;;;;;31.17;14.32;;;1.50;99.90;;;;;;5011019;28;20088;-74
2023/12/02 04:32:23;;;;;;;30.60;14.95;;;1.50;99.90;;;;;;5013320;28;20068;-73
2023/12/02 04:34:49;;;;;;;35.17;15.85;;;1.50;99.90;;;;;;5013605;28;20545;-73
2023/12/02 04:37:15;;;;;;;28.48;15.45;;;1.40;99.90;;;;;;5009844;28;20029;-73
2023/12/02 04:39:41;;;;;;;30.05;15.82;;;1.40;99.90;;;;;;5013761;28;20049;-73
2023/12/02 04:42:07;;;;;;;36.90;17.25;;;1.40;99.90;;;;;;5012719;28;20170;-74
2023/12/02 04:44:33;;;;;;;31.60;15.93;;;1.40;99.90;;;;;;5008898;28;20117;-73
2023/12/02 04:46:58;;;;;;;32.38;15.82;;;1.40;99.90;;;;;;5012579;28;20101;-74
2023/12/02 04:49:24;;;;;;;33.47;16.83;;;1.40;99.90;;;;;;5012423;28;21833;-74
2023/12/02 04:51:50;;;;;;;34.00;18.23;;;1.40;99.90;;;;;;4996575;28;20446;-74
2023/12/02 04:54:15;;;;;;;32.45;16.90;;;1.40;99.90;;;;;;5012171;28;20026;-74
2023/12/02 04:56:41;;;;;;;32.42;16.90;;;1.50;99.90;;;;;;5010647;28;20479;-73
2023/12/02 04:59:07;;;;;;;31.98;17.17;;;1.50;99.90;;;;;;5012795;28;20033;-73
2023/12/02 05:01:33;;;;;;;32.25;17.85;;;1.40;99.90;;;;;;5010520;28;20033;-73
2023/12/02 05:03:58;;;;;;;32.80;16.70;;;1.40;99.90;;;;;;5011695;28;20045;-74
2023/12/02 05:06:24;;;;;;;35.17;17.48;;;1.50;99.90;;;;;;5011453;28;20034;-74
2023/12/02 05:08:50;;;;;;;33.97;16.75;;;1.50;99.90;;;;;;5011362;28;20032;-74
2023/12/02 05:11:20;;;;;;;35.03;17.80;;;1.50;99.90;;;;;;5008870;28;20085;-74
2023/12/02 05:13:47;;;;;;;33.63;16.98;;;1.50;99.90;;;;;;5011581;28;20476;-73
2023/12/02 05:16:16;;;;;;;31.15;15.13;;;1.50;99.90;;;;;;5009713;28;20030;-73
2023/12/02 05:18:42;;;;;;;32.22;15.55;;;1.60;99.90;;;;;;5012443;28;20087;-73
2023/12/02 05:21:11;;;;;;;35.90;16.38;;;1.60;99.90;;;;;;5010418;28;20026;-73
2023/12/02 05:23:38;;;;;;;35.53;17.55;;;1.60;99.90;;;;;;5012589;28;20038;-78
2023/12/02 05:26:04;;;;;;;32.08;16.85;;;1.60;99.90;;;;;;5013249;28;20034;-75
2023/12/02 05:28:30;;;;;;;34.65;17.67;;;1.60;99.90;;;;;;5008724;28;20092;-74
2023/12/02 05:30:55;;;;;;;31.92;16.55;;;1.60;99.90;;;;;;5013079;28;20431;-74
2023/12/02 05:33:22;;;;;;;34.55;16.08;;;1.60;99.90;;;;;;5010113;28;20025;-74
2023/12/02 05:35:50;;;;;;;33.38;17.17;;;1.40;99.90;;;;;;5011636;28;20030;-75
2023/12/02 05:38:16;;;;;;;39.95;17.92;;;1.50;99.90;;;;;;5008629;28;20532;-74
2023/12/02 05:40:43;;;;;;;32.95;17.60;;;1.50;99.90;;;;;;5012022;28;20033;-74
2023/12/02 05:43:08;;;;;;;33.10;17.67;;;1.60;99.90;;;;;;5007973;28;20386;-74
2023/12/02 05:45:34;;;;;;;32.15;17.05;;;1.50;99.90;;;;;;5011967;28;20026;-74
2023/12/02 05:48:00;;;;;;;31.17;15.90;;;1.60;99.90;;;;;;5012001;28;20467;-75
2023/12/02 05:50:26;;;;;;;32.63;14.90;;;1.60;99.90;;;;;;5008972;28;20149;-75
2023/12/02 05:52:52;;;;;;;32.75;16.92;;;1.60;99.90;;;;;;5012228;28;20032;-75
2023/12/02 05:55:18;;;;;;;30.20;15.88;;;1.60;99.90;;;;;;5012662;28;20022;-74
2023/12/02 05:57:44;;;;;;;31.75;16.33;;;1.50;99.90;;;;;;4997350;28;20038;-74
2023/12/02 06:00:10;;;;;;;33.95;16.27;;;1.60;99.90;;;;;;5008683;28;20443;-74
2023/12/02 06:02:36;;;;;;;34.00;16.73;;;1.60;99.90;;;;;;5011338;28;20026;-74
2023/12/02 06:05:02;;;;;;;33.30;16.42;;;1.40;99.90;;;;;;5010200;28;20048;-74
2023/12/02 06:07:28;;;;;;;33.53;16.35;;;1.50;99.90;;;;;;5011174;28;20092;-74
2023/12/02 06:09:54;;;;;;;33.75;16.55;;;1.50;99.90;;;;;;4992837;28;20145;-74
2023/12/02 06:12:19;;;;;;;30.20;15.23;;;1.40;99.90;;;;;;5011065;28;20054;-74
2023/12/02 06:14:45;;;;;;;32.67;16.20;;;1.40;99.90;;;;;;5009777;28;20018;-75
2023/12/02 06:17:11;;;;;;;31.63;15.68;;;1.40;99.90;;;;;;5009281;28;20386;-75
2023/12/02 06:19:36;;;;;;;33.92;16.48;;;1.50;99.90;;;;;;4995070;28;20475;-74
2023/12/02 06:22:03;;;;;;;34.35;17.70;;;1.50;99.90;;;;;;5010508;28;20068;-74
2023/12/02 06:24:28;;;;;;;34.83;16.70;;;1.60;99.90;;;;;;5013004;28;20026;-74
2023/12/02 06:26:55;;;;;;;37.47;17.52;;;1.60;99.90;;;;;;5010905;28;20014;-75
2023/12/02 06:29:21;;;;;;;34.67;16.58;;;1.70;99.90;;;;;;5009689;28;20036;-75
2023/12/02 06:31:50;;;;;;;33.30;17.42;;;1.60;99.90;;;;;;5010045;28;20092;-74
2023/12/02 06:34:16;;;;;;;33.47;17.13;;;1.60;99.90;;;;;;5008438;28;20040;-76
2023/12/02 06:36:44;;;;;;;35.53;17.42;;;1.60;99.90;;;;;;5010417;28;20092;-75
2023/12/02 06:39:12;;;;;;;32.67;16.67;;;1.50;99.90;;;;;;5007871;28;20502;-75
2023/12/02 06:41:41;;;;;;;33.35;16.90;;;1.50;99.90;;;;;;5009028;28;20017;-75
2023/12/02 06:44:10;;;;;;;35.22;17.20;;;1.50;99.90;;;;;;5010572;28;20040;-74
2023/12/02 06:46:36;;;;;;;33.78;16.75;;;1.50;99.90;;;;;;5007998;28;20093;-75
2023/12/02 06:49:02;;;;;;;36.28;18.33;;;1.50;99.90;;;;;;5012232;28;20030;-77
2023/12/02 06:51:31;;;;;;;32.17;16.13;;;1.40;99.90;;;;;;5009362;28;20033;-75
2023/12/02 06:53:57;;;;;;;34.60;17.20;;;1.40;99.90;;;;;;5009965;28;20022;-74
2023/12/02 06:56:24;;;;;;;39.85;18.27;;;1.30;99.90;;;;;;5006794;28;20026;-74
2023/12/02 06:58:51;;;;;;;38.03;17.65;;;1.40;99.90;;;;;;5005046;28;20026;-76
2023/12/02 07:01:27;;;;;;;33.88;17.25;;;1.30;99.90;;;;;;5009872;28;20022;-75
2023/12/02 07:03:54;;;;;;;37.22;17.55;;;1.30;99.90;;;;;;5007193;28;20030;-75
2023/12/02 07:06:20;;;;;;;36.78;19.08;;;1.30;99.90;;;;;;5006142;28;20068;-75
2023/12/02 07:08:50;;;;;;;37.35;17.48;;;1.40;99.90;;;;;;5010520;28;20537;-75
2023/12/02 07:11:16;;;;;;;36.90;17.48;;;1.40;99.90;;;;;;5008317;28;20033;-74
2023/12/02 07:13:43;;;;;;;38.30;18.60;;;1.40;99.90;;;;;;5006988;28;20113;-75
2023/12/02 07:16:09;;;;;;;34.85;17.30;;;1.40;99.90;;;;;;5009449;28;20076;-75
2023/12/02 07:18:35;;;;;;;36.97;18.42;;;1.40;99.90;;;;;;5008399;28;20030;-74
2023/12/02 07:21:00;;;;;;;36.22;18.58;;;1.40;99.90;;;;;;5010685;28;20053;-75
2023/12/02 07:23:28;;;;;;;37.90;18.63;;;1.40;99.90;;;;;;5004415;28;20030;-75
2023/12/02 07:25:55;;;;;;;39.53;18.20;;;1.30;99.90;;;;;;5007254;28;20038;-75
2023/12/02 07:28:21;;;;;;;37.28;18.27;;;1.30;99.90;;;;;;5008780;28;20041;-73
2023/12/02 07:30:49;;;;;;;36.33;18.25;;;1.30;99.90;;;;;;5010342;28;20549;-75
2023/12/02 07:33:15;;;;;;;39.75;18.48;;;1.20;99.90;;;;;;5008270;28;20038;-75
2023/12/02 07:35:42;;;;;;;37.88;19.10;;;1.30;99.90;;;;;;5010100;28;20482;-77
2023/12/02 07:38:08;;;;;;;38.05;18.58;;;1.30;99.90;;;;;;5014291;28;20124;-76
2023/12/02 07:40:35;;;;;;;39.65;19.40;;;1.40;99.90;;;;;;5011780;28;20040;-76
2023/12/02 07:43:01;;;;;;;42.30;20.48;;;1.40;99.90;;;;;;5012360;28;20033;-75
2023/12/02 07:45:27;;;;;;;50.80;21.10;;;1.40;99.90;;;;;;5012256;28;20088;-76
2023/12/02 07:47:53;;;;;;;45.53;21.63;;;1.40;99.90;;;;;;5011962;28;20053;-75
2023/12/02 07:50:19;;;;;;;40.53;19.52;;;1.40;99.90;;;;;;5008188;28;20057;-76
2023/12/02 07:52:45;;;;;;;42.00;19.92;;;1.40;99.90;;;;;;5009311;28;20025;-77
2023/12/02 07:55:12;;;;;;;41.20;19.50;;;1.40;99.90;;;;;;5014212;28;20033;-75
2023/12/02 07:57:38;;;;;;;39.75;19.13;;;1.50;99.90;;;;;;5014579;28;20042;-77
2023/12/02 08:00:04;;;;;;;46.42;20.42;;;1.50;99.90;;;;;;5015616;28;20034;-75
2023/12/02 08:02:30;;;;;;;40.60;19.38;;;1.50;99.90;;;;;;5015555;28;20054;-75
2023/12/02 08:04:57;;;;;;;39.35;19.83;;;1.50;99.90;;;;;;5014573;28;20066;-76
2023/12/02 08:07:23;;;;;;;40.58;19.20;;;1.50;99.90;;;;;;5008774;28;20022;-76
2023/12/02 08:09:49;;;;;;;42.08;20.55;;;1.60;99.90;;;;;;4994073;28;20045;-75
2023/12/02 08:12:15;;;;;;;40.17;20.27;;;1.60;99.90;;;;;;5011583;28;20025;-79
2023/12/02 08:14:41;;;;;;;41.97;19.80;;;1.60;99.90;;;;;;4995863;28;20027;-75
2023/12/02 08:17:07;;;;;;;38.55;18.63;;;1.60;99.90;;;;;;4995547;28;20440;-76
2023/12/02 08:19:33;;;;;;;39.13;20.02;;;1.50;99.90;;;;;;5007588;28;20227;-76
2023/12/02 08:21:59;;;;;;;36.30;19.75;;;1.60;99.90;;;;;;4993531;28;20455;-76
2023/12/02 08:24:25;;;;;;;38.13;19.75;;;1.60;99.90;;;;;;5014240;28;20076;-75
2023/12/02 08:26:51;;;;;;;44.53;21.83;;;1.60;99.90;;;;;;4999895;28;20390;-77
2023/12/02 08:29:17;;;;;;;38.08;19.42;;;1.70;99.90;;;;;;4983200;28;20575;-76
2023/12/02 08:31:43;;;;;;;42.83;21.92;;;1.60;99.90;;;;;;4996489;28;20512;-76
2023/12/02 08:34:08;;;;;;;41.15;21.27;;;1.50;99.90;;;;;;4996205;28;20030;-77
2023/12/02 08:36:34;;;;;;;42.22;20.92;;;1.50;99.90;;;;;;4995584;28;20471;-76
2023/12/02 08:39:02;;;;;;;45.75;21.98;;;1.50;99.90;;;;;;4990527;28;20026;-75
2023/12/02 08:41:28;;;;;;;41.92;19.38;;;1.60;99.90;;;;;;4992412;28;20022;-76
2023/12/02 08:43:53;;;;;;;41.55;20.85;;;1.60;99.90;;;;;;5000262;28;20541;-76
2023/12/02 08:46:19;;;;;;;42.47;20.52;;;1.70;99.90;;;;;;4993154;28;20433;-78
2023/12/02 08:48:45;;;;;;;43.45;21.70;;;1.70;99.90;;;;;;4999796;28;20033;-75
2023/12/02 08:51:12;;;;;;;40.70;21.40;;;1.60;99.90;;;;;;4998723;28;20048;-82
2023/12/02 08:53:38;;;;;;;46.22;21.92;;;1.70;99.90;;;;;;4993504;28;20072;-80
2023/12/02 08:56:04;;;;;;;42.55;21.00;;;1.60;99.90;;;;;;4997837;28;20049;-77
2023/12/02 08:58:30;;;;;;;41.03;19.88;;;1.70;99.90;;;;;;4997030;28;20038;-77
2023/12/02 09:00:56;;;;;;;41.25;19.65;;;1.70;99.90;;;;;;4997335;28;20777;-77
2023/12/02 09:03:22;;;;;;;41.80;21.58;;;1.70;99.90;;;;;;4995435;28;20501;-77
2023/12/02 09:05:54;;;;;;;39.42;19.85;;;1.80;99.90;;;;;;4995913;28;20108;-75
2023/12/02 09:08:20;;;;;;;45.50;22.65;;;1.90;99.90;;;;;;4998872;28;20014;-75
2023/12/02 09:10:46;;;;;;;42.95;22.17;;;2.00;99.90;;;;;;4995795;28;20038;-78
2023/12/02 09:13:23;;;;;;;44.45;21.90;;;2.00;99.90;;;;;;4998375;28;20564;-75
2023/12/02 09:15:49;;;;;;;42.17;22.13;;;1.80;99.90;;;;;;4980188;28;20034;-75
2023/12/02 09:18:32;;;;;;;42.33;21.10;;;1.90;99.90;;;;;;4999131;28;20538;-78
2023/12/02 09:20:58;;;;;;;41.78;21.50;;;1.90;99.90;;;;;;4981024;28;20030;-79
2023/12/02 09:23:24;;;;;;;42.53;21.85;;;1.90;99.90;;;;;;4996159;28;20050;-75
2023/12/02 09:25:53;;;;;;;43.42;21.30;;;1.90;99.90;;;;;;4996582;28;20023;-75
2023/12/02 09:28:26;;;;;;;44.55;20.30;;;1.90;99.90;;;;;;4994802;28;20513;-76
2023/12/02 09:30:52;;;;;;;43.25;21.27;;;2.00;99.90;;;;;;4993667;28;20077;-77
2023/12/02 09:33:19;;;;;;;42.08;21.45;;;2.00;99.90;;;;;;4987870;28;20690;-77
2023/12/02 09:35:46;;;;;;;43.50;20.58;;;2.00;99.90;;;;;;4995497;28;20061;-77
2023/12/02 09:38:15;;;;;;;42.28;20.80;;;2.00;99.90;;;;;;4988270;28;20030;-76
2023/12/02 09:40:42;;;;;;;41.30;20.85;;;1.90;99.90;;;;;;4997729;28;20026;-77
2023/12/02 09:43:26;;;;;;;42.90;21.00;;;2.00;99.90;;;;;;4995349;28;20439;-77
2023/12/02 09:46:02;;;;;;;42.08;20.00;;;2.00;99.90;;;;;;4994854;28;21493;-77
2023/12/02 09:48:34;;;;;;;43.67;20.50;;;1.90;99.90;;;;;;4993393;28;20471;-77
2023/12/02 09:51:26;;;;;;;40.33;19.60;;;2.00;99.90;;;;;;4985863;28;20040;-77
2023/12/02 09:54:07;;;;;;;42.05;21.33;;;2.00;99.90;;;;;;4995136;28;20035;-78
2023/12/02 09:56:42;;;;;;;44.60;21.60;;;2.00;99.90;;;;;;4976783;28;20407;-77
2023/12/02 09:59:22;;;;;;;42.03;21.75;;;2.00;99.90;;;;;;4988699;28;20432;-78
2023/12/02 10:01:55;;;;;;;48.72;21.02;;;1.90;99.90;;;;;;4991608;28;20022;-78
2023/12/02 10:04:47;;;;;;;45.70;21.75;;;2.00;99.90;;;;;;4986378;28;20037;-78
2023/12/02 10:07:31;;;;;;;44.38;21.67;;;2.00;99.90;;;;;;4982998;28;20033;-78
2023/12/02 10:10:13;;;;;;;42.30;20.75;;;2.00;99.90;;;;;;4996116;28;20034;-77
2023/12/02 10:13:25;;;;;;;50.92;23.30;;;2.00;99.90;;;;;;4977287;28;20034;-76
2023/12/02 10:15:57;;;;;;;49.28;22.73;;;2.00;99.90;;;;;;4993371;28;21046;-77
2023/12/02 10:18:29;;;;;;;51.78;24.20;;;2.10;99.90;;;;;;4996454;28;20023;-77
2023/12/02 10:21:01;;;;;;;44.28;22.10;;;2.10;99.90;;;;;;4992046;28;20053;-78
2023/12/02 10:23:46;;;;;;;45.42;22.60;;;2.10;99.90;;;;;;4980751;28;20117;-77
2023/12/02 10:26:44;;;;;;;48.53;22.45;;;2.10;99.90;;;;;;4995745;28;20619;-77
2023/12/02 10:29:23;;;;;;;47.30;23.23;;;2.20;99.90;;;;;;4990461;28;20046;-77
2023/12/02 10:32:09;;;;;;;48.10;22.38;;;2.20;99.90;;;;;;4994227;28;20387;-78
2023/12/02 10:34:43;;;;;;;48.35;22.73;;;2.20;99.90;;;;;;4986377;28;20030;-78
2023/12/02 10:37:11;;;;;;;50.20;23.80;;;2.20;99.90;;;;;;4990638;28;20069;-77
2023/12/02 10:39:46;;;;;;;46.00;22.15;;;2.20;99.90;;;;;;4993714;28;20024;-78
2023/12/02 10:42:51;;;;;;;49.05;24.30;;;2.10;99.90;;;;;;4992541;28;20030;-79
2023/12/02 10:45:19;;;;;;;48.47;23.30;;;2.20;99.90;;;;;;4986766;28;20052;-81
2023/12/02 10:47:47;;;;;;;49.17;23.35;;;2.20;99.90;;;;;;4976140;28;20022;-80
2023/12/02 10:50:16;;;;;;;49.20;23.90;;;2.20;99.90;;;;;;4995129;28;20105;-81
2023/12/02 10:52:55;;;;;;;53.63;24.23;;;2.20;99.90;;;;;;4992021;28;20025;-80
2023/12/02 10:55:23;;;;;;;50.83;23.35;;;2.30;99.90;;;;;;4990569;28;20026;-80
2023/12/02 10:57:49;;;;;;;48.28;24.13;;;2.30;99.90;;;;;;4975915;28;20107;-79
2023/12/02 11:00:16;;;;;;;55.05;25.63;;;2.40;99.90;;;;;;4987033;28;20368;-79
2023/12/02 11:02:55;;;;;;;54.50;27.67;;;2.30;99.90;;;;;;4987182;28;20026;-80
2023/12/02 11:05:23;;;;;;;63.25;28.27;;;2.40;99.90;;;;;;4994666;28;20097;-81
2023/12/02 11:07:54;;;;;;;55.08;26.42;;;2.40;99.90;;;;;;4984692;28;20021;-80
2023/12/02 11:10:35;;;;;;;56.65;26.88;;;2.40;99.90;;;;;;4980577;28;20014;-80
2023/12/02 11:13:04;;;;;;;55.33;28.42;;;2.40;99.90;;;;;;4993590;28;20058;-78
2023/12/02 11:15:37;;;;;;;61.28;28.08;;;2.50;99.90;;;;;;4992560;28;20082;-77
2023/12/02 11:18:04;;;;;;;54.38;26.88;;;2.50;99.90;;;;;;4975889;28;20018;-76
2023/12/02 11:20:32;;;;;;;55.08;28.65;;;2.50;99.90;;;;;;4995413;28;20457;-78
2023/12/02 11:23:18;;;;;;;60.40;27.77;;;2.40;99.90;;;;;;4992080;28;20022;-77
2023/12/02 11:25:59;;;;;;;55.72;26.55;;;2.50;99.90;;;;;;4987595;28;20101;-79
2023/12/02 11:29:10;;;;;;;55.42;27.25;;;2.60;99.90;;;;;;4987062;28;20034;-76
2023/12/02 11:32:08;;;;;;;51.47;25.45;;;2.70;99.90;;;;;;4992795;28;20033;-77
2023/12/02 11:34:59;;;;;;;58.78;28.10;;;2.70;99.90;;;;;;4989430;28;20030;-75
2023/12/02 11:37:38;;;;;;;54.42;26.75;;;2.80;99.90;;;;;;4993028;28;20739;-75
2023/12/02 11:40:39;;;;;;;52.33;26.30;;;2.80;99.90;;;;;;4995044;28;20018;-78
2023/12/02 11:43:17;;;;;;;54.55;27.30;;;2.80;99.90;;;;;;4991104;28;20034;-78
2023/12/02 11:45:53;;;;;;;58.47;27.40;;;2.80;99.90;;;;;;4994625;28;20056;-77
2023/12/02 11:48:54;;;;;;;60.03;27.67;;;2.70;99.90;;;;;;4977168;28;20049;-77
2023/12/02 11:52:18;;;;;;;53.50;28.23;;;2.80;99.90;;;;;;4970750;28;20742;-78
2023/12/02 11:54:46;;;;;;;;;;;2.80;99.90;;;;;;4980206;28;20044;-77
2023/12/02 11:57:26;;;;;;;55.38;26.10;;;2.80;99.90;;;;;;4993624;28;19914;-77
2023/12/02 12:00:06;;;;;;;59.97;27.10;;;2.80;99.90;;;;;;4994386;28;20063;-77
2023/12/02 12:02:40;;;;;;;59.00;27.98;;;2.80;99.90;;;;;;4990627;28;20072;-79
2023/12/02 12:05:24;;;;;;;53.15;24.98;;;2.90;99.90;;;;;;4995302;28;20574;-78
2023/12/02 12:08:18;;;;;;;55.28;25.77;;;3.00;99.90;;;;;;4980245;28;20081;-77
2023/12/02 12:10:46;;;;;;;53.38;26.02;;;2.90;99.90;;;;;;4990322;28;20045;-78
2023/12/02 12:13:14;;;;;;;52.10;25.98;;;2.90;99.90;;;;;;4987904;28;20034;-84
2023/12/02 12:15:42;;;;;;;56.85;26.25;;;2.90;99.90;;;;;;4985969;28;20080;-82
2023/12/02 12:18:10;;;;;;;55.90;26.55;;;2.80;99.90;;;;;;4985569;28;20029;-79
2023/12/02 12:20:36;;;;;;;53.92;25.95;;;2.90;99.90;;;;;;4998302;28;20537;-80
2023/12/02 12:23:02;;;;;;;53.35;25.92;;;2.80;99.90;;;;;;4997729;28;20053;-79
2023/12/02 12:25:29;;;;;;;54.95;27.38;;;2.90;99.90;;;;;;4997187;28;20483;-80
2023/12/02 12:28:05;;;;;;;52.42;26.67;;;2.90;99.90;;;;;;4995017;28;20041;-80
2023/12/02 12:30:47;;;;;;;52.13;25.55;;;3.00;99.90;;;;;;4990239;28;20097;-81
2023/12/02 12:33:15;;;;;;;51.75;25.33;;;3.00;99.90;;;;;;4997451;28;20116;-81
2023/12/02 12:35:41;;;;;;;54.70;25.20;;;3.00;99.90;;;;;;4987933;28;20026;-81
2023/12/02 12:38:10;;;;;;;50.55;26.00;;;3.10;99.90;;;;;;4989077;28;20506;-81
2023/12/02 12:40:37;;;;;;;50.72;24.67;;;3.10;99.90;;;;;;4994592;28;20074;-82
2023/12/02 12:43:03;;;;;;;49.45;24.55;;;3.20;99.90;;;;;;4996635;28;20104;-81
2023/12/02 12:45:31;;;;;;;51.63;25.75;;;3.20;99.90;;;;;;4997954;28;20034;-81
2023/12/02 12:47:58;;;;;;;47.85;22.95;;;3.30;99.90;;;;;;5003427;28;20025;-81